createdAt,value
2022-11-05T00:00:53.209Z,77.22
2022-11-05T00:01:53.248Z,77.08
2022-11-05T00:02:53.175Z,77.01
2022-11-05T00:03:53.195Z,77.08
2022-11-05T00:04:53.125Z,76.97
2022-11-05T00:05:53.115Z,76.97
2022-11-05T00:06:53.177Z,76.97
2022-11-05T00:07:53.089Z,77.18
2022-11-05T00:08:53.082Z,76.97
2022-11-05T00:09:53.072Z,77.18
2022-11-05T00:10:53.079Z,77.18
2022-11-05T00:11:53.049Z,77.28
2022-11-05T00:12:53.051Z,77.18
2022-11-05T00:13:53.026Z,77.08
2022-11-05T00:14:53.020Z,76.97
2022-11-05T00:15:53.003Z,77.38
2022-11-05T00:16:53.014Z,77.08
2022-11-05T00:17:52.979Z,77.28
2022-11-05T00:18:52.996Z,77.18
2022-11-05T00:19:52.960Z,77.18
2022-11-05T00:20:52.951Z,77.28
2022-11-05T00:21:53.011Z,77.28
2022-11-05T00:22:52.948Z,77.18
2022-11-05T00:23:53.014Z,77.18
2022-11-05T00:24:52.941Z,77.18
2022-11-05T00:25:52.890Z,77.18
2022-11-05T00:26:52.893Z,77.38
2022-11-05T00:27:52.870Z,77.08
2022-11-05T00:28:52.857Z,77.18
2022-11-05T00:29:52.852Z,77.08
2022-11-05T00:30:52.899Z,77.14
2022-11-05T00:31:52.824Z,77.08
2022-11-05T00:32:52.814Z,77.28
2022-11-05T00:33:52.812Z,77.28
2022-11-05T00:34:52.789Z,77.28
2022-11-05T00:35:52.789Z,77.28
2022-11-05T00:36:52.793Z,77.18
2022-11-05T00:37:52.764Z,77.38
2022-11-05T00:38:52.769Z,77.18
2022-11-05T00:39:52.737Z,77.38
2022-11-05T00:40:52.732Z,77.18
2022-11-05T00:41:52.712Z,76.97
2022-11-05T00:42:52.719Z,77.28
2022-11-05T00:43:52.701Z,77.18
2022-11-05T00:44:52.680Z,76.87
2022-11-05T00:45:52.700Z,77.18
2022-11-05T00:46:55.914Z,77.08
2022-11-05T00:47:53.675Z,77.18
2022-11-05T00:48:52.676Z,76.97
2022-11-05T00:49:52.621Z,76.97
2022-11-05T00:50:52.616Z,76.97
2022-11-05T00:51:52.594Z,76.97
2022-11-05T00:52:52.598Z,76.97
2022-11-05T00:53:52.602Z,76.97
2022-11-05T00:54:52.688Z,77.08
2022-11-05T00:55:52.601Z,76.77
2022-11-05T00:56:52.547Z,76.97
2022-11-05T00:57:52.534Z,76.84
2022-11-05T00:58:52.525Z,76.97
2022-11-05T00:59:52.542Z,76.97
2022-11-05T01:00:52.506Z,76.93
2022-11-05T01:01:52.643Z,77.04
2022-11-05T01:02:52.704Z,76.97
2022-11-05T01:03:52.472Z,77.08
2022-11-05T01:04:52.461Z,76.97
2022-11-05T01:05:52.497Z,77.18
2022-11-05T01:06:52.437Z,76.97
2022-11-05T01:07:52.425Z,76.97
2022-11-05T01:08:52.412Z,77.18
2022-11-05T01:09:52.406Z,77.18
2022-11-05T01:10:52.420Z,77.28
2022-11-05T01:11:52.397Z,77.28
2022-11-05T01:12:52.372Z,77.28
2022-11-05T01:13:52.374Z,77.18
2022-11-05T01:14:52.367Z,77.28
2022-11-05T01:15:52.351Z,77.18
2022-11-05T01:16:52.327Z,77.18
2022-11-05T01:17:52.363Z,77.08
2022-11-05T01:18:52.303Z,76.97
2022-11-05T01:19:52.297Z,77.28
2022-11-05T01:20:52.298Z,77.08
2022-11-05T01:21:52.272Z,76.97
2022-11-05T01:22:52.261Z,76.97
2022-11-05T01:23:52.267Z,77.18
2022-11-05T01:24:52.234Z,76.97
2022-11-05T01:25:52.238Z,76.97
2022-11-05T01:26:52.233Z,77.11
2022-11-05T01:27:52.207Z,76.97
2022-11-05T01:28:52.289Z,77.11
2022-11-05T01:29:52.207Z,77.22
2022-11-05T01:30:52.168Z,76.87
2022-11-05T01:31:52.153Z,77.08
2022-11-05T01:32:52.150Z,77.31
2022-11-05T01:33:52.164Z,77.31
2022-11-05T01:34:52.123Z,77.31
2022-11-05T01:35:52.146Z,77.31
2022-11-05T01:36:52.105Z,77.18
2022-11-05T01:37:52.092Z,76.97
2022-11-05T01:38:52.079Z,77.31
2022-11-05T01:39:52.109Z,77.28
2022-11-05T01:40:52.052Z,77.18
2022-11-05T01:41:52.092Z,77.31
2022-11-05T01:42:52.063Z,77.31
2022-11-05T01:43:52.041Z,77.28
2022-11-05T01:44:52.017Z,77.31
2022-11-05T01:45:52.003Z,77.18
2022-11-05T01:46:51.995Z,77.18
2022-11-05T01:47:52.012Z,77.18
2022-11-05T01:48:51.970Z,77.11
2022-11-05T01:49:51.962Z,77.08
2022-11-05T01:50:51.952Z,77.11
2022-11-05T01:51:51.966Z,77.08
2022-11-05T01:52:51.929Z,77.28
2022-11-05T01:53:51.935Z,77.18
2022-11-05T01:54:51.897Z,77.18
2022-11-05T01:55:51.903Z,77.28
2022-11-05T01:56:51.876Z,77.22
2022-11-05T01:57:51.905Z,77.31
2022-11-05T01:58:51.966Z,76.97
2022-11-05T01:59:51.879Z,77.08
2022-11-05T02:00:51.857Z,77.18
2022-11-05T02:01:51.959Z,76.97
2022-11-05T02:02:51.973Z,77.18
2022-11-05T02:03:51.807Z,76.87
2022-11-05T02:04:51.791Z,76.97
2022-11-05T02:05:51.810Z,77.11
2022-11-05T02:06:51.778Z,77.28
2022-11-05T02:07:51.765Z,77.01
2022-11-05T02:08:51.752Z,76.97
2022-11-05T02:09:51.734Z,76.97
2022-11-05T02:10:51.730Z,76.97
2022-11-05T02:11:51.765Z,76.97
2022-11-05T02:12:51.709Z,77.08
2022-11-05T02:13:51.695Z,76.97
2022-11-05T02:14:51.704Z,77.18
2022-11-05T02:15:51.675Z,77.18
2022-11-05T02:16:51.655Z,77.08
2022-11-05T02:17:51.721Z,77.18
2022-11-05T02:18:51.653Z,76.97
2022-11-05T02:19:51.629Z,77.08
2022-11-05T02:20:52.420Z,76.87
2022-11-05T02:21:51.605Z,76.97
2022-11-05T02:22:51.589Z,77.08
2022-11-05T02:23:51.616Z,76.97
2022-11-05T02:24:51.575Z,77.08
2022-11-05T02:25:51.558Z,76.87
2022-11-05T02:26:51.565Z,77.08
2022-11-05T02:27:51.535Z,76.97
2022-11-05T02:28:51.527Z,76.97
2022-11-05T02:29:51.575Z,76.90
2022-11-05T02:30:51.529Z,76.97
2022-11-05T02:31:51.496Z,77.08
2022-11-05T02:32:51.485Z,77.18
2022-11-05T02:33:51.468Z,76.97
2022-11-05T02:34:51.463Z,77.18
2022-11-05T02:35:51.476Z,77.28
2022-11-05T02:36:51.446Z,77.14
2022-11-05T02:37:51.431Z,77.08
2022-11-05T02:38:51.418Z,77.18
2022-11-05T02:39:51.413Z,77.18
2022-11-05T02:40:51.392Z,77.18
2022-11-05T02:41:51.396Z,77.28
2022-11-05T02:42:51.372Z,76.93
2022-11-05T02:43:51.368Z,77.38
2022-11-05T02:44:51.349Z,77.34
2022-11-05T02:45:51.349Z,76.97
2022-11-05T02:46:51.355Z,77.28
2022-11-05T02:47:51.359Z,77.04
2022-11-05T02:48:51.311Z,77.08
2022-11-05T02:49:51.291Z,77.08
2022-11-05T02:50:51.290Z,77.28
2022-11-05T02:51:51.273Z,76.97
2022-11-05T02:52:51.268Z,77.08
2022-11-05T02:53:51.283Z,77.25
2022-11-05T02:54:51.245Z,77.14
2022-11-05T02:55:51.236Z,77.14
2022-11-05T02:56:51.216Z,77.04
2022-11-05T02:57:51.237Z,77.04
2022-11-05T02:58:51.203Z,76.93
2022-11-05T02:59:51.201Z,76.93
2022-11-05T03:00:51.191Z,76.93
2022-11-05T03:01:51.300Z,76.84
2022-11-05T03:02:51.295Z,76.97
2022-11-05T03:03:51.149Z,76.93
2022-11-05T03:04:51.131Z,76.93
2022-11-05T03:05:51.139Z,76.93
2022-11-05T03:06:51.111Z,76.93
2022-11-05T03:07:51.122Z,77.14
2022-11-05T03:08:51.090Z,77.04
2022-11-05T03:09:51.097Z,77.18
2022-11-05T03:10:51.068Z,76.84
2022-11-05T03:11:51.071Z,76.93
2022-11-05T03:12:51.043Z,77.04
2022-11-05T03:13:51.032Z,77.04
2022-11-05T03:14:51.021Z,76.93
2022-11-05T03:15:51.007Z,76.84
2022-11-05T03:16:50.997Z,76.84
2022-11-05T03:17:51.018Z,76.84
2022-11-05T03:18:51.104Z,77.04
2022-11-05T03:19:50.976Z,76.84
2022-11-05T03:20:50.951Z,77.14
2022-11-05T03:21:50.942Z,77.14
2022-11-05T03:22:50.928Z,76.93
2022-11-05T03:23:50.955Z,77.14
2022-11-05T03:24:50.908Z,77.04
2022-11-05T03:25:50.902Z,76.93
2022-11-05T03:26:50.888Z,77.14
2022-11-05T03:27:50.895Z,77.04
2022-11-05T03:28:50.867Z,76.93
2022-11-05T03:29:50.880Z,77.04
2022-11-05T03:30:50.847Z,76.93
2022-11-05T03:31:50.843Z,76.84
2022-11-05T03:32:50.826Z,76.93
2022-11-05T03:33:50.813Z,77.04
2022-11-05T03:34:50.821Z,76.93
2022-11-05T03:35:50.869Z,77.04
2022-11-05T03:36:50.773Z,77.04
2022-11-05T03:37:50.762Z,76.84
2022-11-05T03:38:50.753Z,77.25
2022-11-05T03:39:50.755Z,77.04
2022-11-05T03:40:50.730Z,76.93
2022-11-05T03:41:50.735Z,76.84
2022-11-05T03:42:50.717Z,76.93
2022-11-05T03:43:50.700Z,77.25
2022-11-05T03:44:50.695Z,77.25
2022-11-05T03:45:50.675Z,77.25
2022-11-05T03:46:50.671Z,77.25
2022-11-05T03:47:50.682Z,76.93
2022-11-05T03:48:50.720Z,76.93
2022-11-05T03:49:50.654Z,77.14
2022-11-05T03:50:50.678Z,77.04
2022-11-05T03:51:50.636Z,76.93
2022-11-05T03:52:50.596Z,76.93
2022-11-05T03:53:50.603Z,76.93
2022-11-05T03:54:50.576Z,77.14
2022-11-05T03:55:50.564Z,77.14
2022-11-05T03:56:50.556Z,77.04
2022-11-05T03:57:50.540Z,76.84
2022-11-05T03:58:54.650Z,77.04
2022-11-05T03:59:51.540Z,77.14
2022-11-05T04:00:50.503Z,76.93
2022-11-05T04:01:50.629Z,77.04
2022-11-05T04:02:50.663Z,77.00
2022-11-05T04:03:50.480Z,76.93
2022-11-05T04:04:50.464Z,77.00
2022-11-05T04:05:50.491Z,76.80
2022-11-05T04:06:50.463Z,76.90
2022-11-05T04:07:50.459Z,76.93
2022-11-05T04:08:50.420Z,76.90
2022-11-05T04:09:50.413Z,77.00
2022-11-05T04:10:50.400Z,77.14
2022-11-05T04:11:50.415Z,77.11
2022-11-05T04:12:50.376Z,77.00
2022-11-05T04:13:50.365Z,76.93
2022-11-05T04:14:50.348Z,77.11
2022-11-05T04:15:50.338Z,77.11
2022-11-05T04:16:50.329Z,76.93
2022-11-05T04:17:50.333Z,76.90
2022-11-05T04:18:50.308Z,76.80
2022-11-05T04:19:50.295Z,77.21
2022-11-05T04:20:50.284Z,76.90
2022-11-05T04:21:50.270Z,77.00
2022-11-05T04:22:50.285Z,77.14
2022-11-05T04:23:50.286Z,77.11
2022-11-05T04:24:50.240Z,77.21
2022-11-05T04:25:50.232Z,77.11
2022-11-05T04:26:50.217Z,77.11
2022-11-05T04:27:50.208Z,77.11
2022-11-05T04:28:50.214Z,77.11
2022-11-05T04:29:50.229Z,76.90
2022-11-05T04:30:50.173Z,76.90
2022-11-05T04:31:50.166Z,77.11
2022-11-05T04:32:50.148Z,77.00
2022-11-05T04:33:50.135Z,76.90
2022-11-05T04:34:50.130Z,77.11
2022-11-05T04:35:50.132Z,77.11
2022-11-05T04:36:50.108Z,76.90
2022-11-05T04:37:50.089Z,77.11
2022-11-05T04:38:50.101Z,77.11
2022-11-05T04:39:50.075Z,76.80
2022-11-05T04:40:50.058Z,77.11
2022-11-05T04:41:50.062Z,77.00
2022-11-05T04:42:50.032Z,76.80
2022-11-05T04:43:50.050Z,77.00
2022-11-05T04:44:50.018Z,76.90
2022-11-05T04:45:50.029Z,77.00
2022-11-05T04:46:49.997Z,76.87
2022-11-05T04:47:49.991Z,77.00
2022-11-05T04:48:49.965Z,77.00
2022-11-05T04:49:49.956Z,76.87
2022-11-05T04:50:49.954Z,77.11
2022-11-05T04:51:49.939Z,76.80
2022-11-05T04:52:49.919Z,77.00
2022-11-05T04:53:49.922Z,77.07
2022-11-05T04:54:49.922Z,76.97
2022-11-05T04:55:49.883Z,77.00
2022-11-05T04:56:49.882Z,77.07
2022-11-05T04:57:49.876Z,76.97
2022-11-05T04:58:49.856Z,76.76
2022-11-05T04:59:49.854Z,76.97
2022-11-05T05:00:49.958Z,77.07
2022-11-05T05:01:49.858Z,76.90
2022-11-05T05:02:49.811Z,76.90
2022-11-05T05:03:49.802Z,77.21
2022-11-05T05:04:49.788Z,77.21
2022-11-05T05:05:52.951Z,77.11
2022-11-05T05:06:49.793Z,77.21
2022-11-05T05:07:49.750Z,77.21
2022-11-05T05:08:49.761Z,77.21
2022-11-05T05:09:49.749Z,76.90
2022-11-05T05:10:49.748Z,77.11
2022-11-05T05:11:49.740Z,76.90
2022-11-05T05:12:49.690Z,77.07
2022-11-05T05:13:49.678Z,77.00
2022-11-05T05:14:49.717Z,76.87
2022-11-05T05:15:49.663Z,77.07
2022-11-05T05:16:49.655Z,77.17
2022-11-05T05:17:49.649Z,77.11
2022-11-05T05:18:49.653Z,76.90
2022-11-05T05:19:49.617Z,77.11
2022-11-05T05:20:49.621Z,77.11
2022-11-05T05:21:49.594Z,77.31
2022-11-05T05:22:49.579Z,76.87
2022-11-05T05:23:49.644Z,77.21
2022-11-05T05:24:52.740Z,77.07
2022-11-05T05:25:49.548Z,77.07
2022-11-05T05:26:49.557Z,77.11
2022-11-05T05:27:49.527Z,77.31
2022-11-05T05:28:49.518Z,77.00
2022-11-05T05:29:49.518Z,77.07
2022-11-05T05:30:49.511Z,77.31
2022-11-05T05:31:49.484Z,77.21
2022-11-05T05:32:49.470Z,77.00
2022-11-05T05:33:49.460Z,77.11
2022-11-05T05:34:49.444Z,77.00
2022-11-05T05:35:49.454Z,77.11
2022-11-05T05:36:49.422Z,77.11
2022-11-05T05:37:49.410Z,77.00
2022-11-05T05:38:49.416Z,77.11
2022-11-05T05:39:49.387Z,76.90
2022-11-05T05:40:49.379Z,77.21
2022-11-05T05:41:49.384Z,77.11
2022-11-05T05:42:49.403Z,77.00
2022-11-05T05:43:49.371Z,76.80
2022-11-05T05:44:49.331Z,76.90
2022-11-05T05:45:49.344Z,76.80
2022-11-05T05:46:49.307Z,76.90
2022-11-05T05:47:49.337Z,77.11
2022-11-05T05:48:49.292Z,76.90
2022-11-05T05:49:49.284Z,76.90
2022-11-05T05:50:49.261Z,76.80
2022-11-05T05:51:49.255Z,77.00
2022-11-05T05:52:49.241Z,77.21
2022-11-05T05:53:49.253Z,76.90
2022-11-05T05:54:49.246Z,76.90
2022-11-05T05:55:49.211Z,77.00
2022-11-05T05:56:49.203Z,76.80
2022-11-05T05:57:49.185Z,77.00
2022-11-05T05:58:49.197Z,77.21
2022-11-05T05:59:49.186Z,77.21
2022-11-05T06:00:49.153Z,77.11
2022-11-05T06:01:49.260Z,77.31
2022-11-05T06:02:49.216Z,77.11
2022-11-05T06:03:49.134Z,77.21
2022-11-05T06:04:49.116Z,77.00
2022-11-05T06:05:49.126Z,76.90
2022-11-05T06:06:49.093Z,77.11
2022-11-05T06:07:49.075Z,77.11
2022-11-05T06:08:49.084Z,77.00
2022-11-05T06:09:49.056Z,77.31
2022-11-05T06:10:49.087Z,77.31
2022-11-05T06:11:49.066Z,77.21
2022-11-05T06:12:49.081Z,77.31
2022-11-05T06:13:49.006Z,77.21
2022-11-05T06:14:49.021Z,77.21
2022-11-05T06:15:48.983Z,77.31
2022-11-05T06:16:48.976Z,77.41
2022-11-05T06:17:49.014Z,77.31
2022-11-05T06:18:48.952Z,77.31
2022-11-05T06:19:48.938Z,77.41
2022-11-05T06:20:48.928Z,77.31
2022-11-05T06:21:48.930Z,77.37
2022-11-05T06:22:48.903Z,76.97
2022-11-05T06:23:48.931Z,77.41
2022-11-05T06:24:48.877Z,77.27
2022-11-05T06:25:48.865Z,76.97
2022-11-05T06:26:48.855Z,77.17
2022-11-05T06:27:48.847Z,76.97
2022-11-05T06:28:48.839Z,77.27
2022-11-05T06:29:48.843Z,77.27
2022-11-05T06:30:48.842Z,77.07
2022-11-05T06:31:48.800Z,77.11
2022-11-05T06:32:48.793Z,76.87
2022-11-05T06:33:48.836Z,77.00
2022-11-05T06:34:48.774Z,76.97
2022-11-05T06:35:48.866Z,76.97
2022-11-05T06:36:48.750Z,77.07
2022-11-05T06:37:48.735Z,76.87
2022-11-05T06:38:48.723Z,76.87
2022-11-05T06:39:48.707Z,76.87
2022-11-05T06:40:48.702Z,76.87
2022-11-05T06:42:16.614Z,77.17
2022-11-05T06:42:49.681Z,76.87
2022-11-05T06:43:48.664Z,77.07
2022-11-05T06:44:48.655Z,77.07
2022-11-05T06:45:48.655Z,77.07
2022-11-05T06:46:48.885Z,77.11
2022-11-05T06:47:48.651Z,77.21
2022-11-05T06:48:48.609Z,77.07
2022-11-05T06:49:48.600Z,77.17
2022-11-05T06:50:48.610Z,76.97
2022-11-05T06:51:48.580Z,76.97
2022-11-05T06:52:48.557Z,77.07
2022-11-05T06:53:48.624Z,77.11
2022-11-05T06:54:48.544Z,76.90
2022-11-05T06:55:48.525Z,76.87
2022-11-05T06:56:48.519Z,76.87
2022-11-05T06:57:48.502Z,76.87
2022-11-05T06:58:48.489Z,77.07
2022-11-05T06:59:48.497Z,77.17
2022-11-05T07:00:48.557Z,77.07
2022-11-05T07:01:48.628Z,77.17
2022-11-05T07:02:48.472Z,77.03
2022-11-05T07:03:49.040Z,77.24
2022-11-05T07:04:48.471Z,77.14
2022-11-05T07:05:48.432Z,77.14
2022-11-05T07:06:48.406Z,77.24
2022-11-05T07:07:48.392Z,77.17
2022-11-05T07:08:48.385Z,77.24
2022-11-05T07:09:48.371Z,77.24
2022-11-05T07:10:48.360Z,77.24
2022-11-05T07:11:48.357Z,77.03
2022-11-05T07:12:48.377Z,77.03
2022-11-05T07:13:48.320Z,77.03
2022-11-05T07:14:48.311Z,77.03
2022-11-05T07:15:48.308Z,77.10
2022-11-05T07:16:48.287Z,77.10
2022-11-05T07:17:48.316Z,77.20
2022-11-05T07:18:48.288Z,77.10
2022-11-05T07:19:48.257Z,77.00
2022-11-05T07:20:48.250Z,76.90
2022-11-05T07:21:48.234Z,76.96
2022-11-05T07:22:48.250Z,76.56
2022-11-05T07:23:48.228Z,76.96
2022-11-05T07:24:48.195Z,76.96
2022-11-05T07:25:48.201Z,77.17
2022-11-05T07:26:48.175Z,77.17
2022-11-05T07:27:48.171Z,77.57
2022-11-05T07:28:48.155Z,77.03
2022-11-05T07:29:48.173Z,77.03
2022-11-05T07:30:48.143Z,77.13
2022-11-05T07:31:48.158Z,77.03
2022-11-05T07:32:48.115Z,77.23
2022-11-05T07:33:48.097Z,77.03
2022-11-05T07:34:48.113Z,77.13
2022-11-05T07:35:48.119Z,76.92
2022-11-05T07:36:48.083Z,76.92
2022-11-05T07:37:48.056Z,77.03
2022-11-05T07:38:48.047Z,77.03
2022-11-05T07:39:48.053Z,77.13
2022-11-05T07:40:48.019Z,77.13
2022-11-05T07:41:48.044Z,77.09
2022-11-05T07:42:47.995Z,76.79
2022-11-05T07:43:47.987Z,76.79
2022-11-05T07:44:47.978Z,76.59
2022-11-05T07:45:48.494Z,76.68
2022-11-05T07:46:47.955Z,76.79
2022-11-05T07:47:47.980Z,76.99
2022-11-05T07:48:47.950Z,76.99
2022-11-05T07:49:47.920Z,76.99
2022-11-05T07:50:47.928Z,76.89
2022-11-05T07:51:47.898Z,76.68
2022-11-05T07:52:47.880Z,76.68
2022-11-05T07:53:47.891Z,76.28
2022-11-05T07:54:47.873Z,76.28
2022-11-05T07:55:47.852Z,76.48
2022-11-05T07:56:47.842Z,76.07
2022-11-05T07:57:47.934Z,76.48
2022-11-05T07:58:47.823Z,76.68
2022-11-05T07:59:47.841Z,76.18
2022-11-05T08:00:47.932Z,76.04
2022-11-05T08:01:48.069Z,76.75
2022-11-05T08:02:47.981Z,76.25
2022-11-05T08:03:47.956Z,76.25
2022-11-05T08:04:47.749Z,76.34
2022-11-05T08:05:47.763Z,76.45
2022-11-05T08:06:47.748Z,76.14
2022-11-05T08:07:47.728Z,76.55
2022-11-05T08:08:47.704Z,76.04
2022-11-05T08:09:47.711Z,75.94
2022-11-05T08:10:47.685Z,76.34
2022-11-05T08:11:47.727Z,76.34
2022-11-05T08:12:47.663Z,76.75
2022-11-05T08:13:47.647Z,76.55
2022-11-05T08:14:47.636Z,77.16
2022-11-05T08:15:47.640Z,76.55
2022-11-05T08:16:47.624Z,76.72
2022-11-05T08:17:47.634Z,76.86
2022-11-05T08:18:47.595Z,76.95
2022-11-05T08:19:47.580Z,76.95
2022-11-05T08:20:47.575Z,77.06
2022-11-05T08:21:47.559Z,76.82
2022-11-05T08:22:47.577Z,76.95
2022-11-05T08:23:47.575Z,77.06
2022-11-05T08:24:47.536Z,76.95
2022-11-05T08:25:47.518Z,77.06
2022-11-05T08:26:47.499Z,76.86
2022-11-05T08:27:47.494Z,77.12
2022-11-05T08:28:47.518Z,77.12
2022-11-05T08:29:47.484Z,77.02
2022-11-05T08:30:47.456Z,77.06
2022-11-05T08:31:47.453Z,77.06
2022-11-05T08:32:47.431Z,76.95
2022-11-05T08:33:47.426Z,76.92
2022-11-05T08:34:47.420Z,76.86
2022-11-05T08:35:47.415Z,76.86
2022-11-05T08:36:47.421Z,76.86
2022-11-05T08:37:47.376Z,76.86
2022-11-05T08:38:47.389Z,76.86
2022-11-05T08:39:47.355Z,76.65
2022-11-05T08:40:47.347Z,76.95
2022-11-05T08:41:47.403Z,76.45
2022-11-05T08:42:47.325Z,76.55
2022-11-05T08:43:47.312Z,76.55
2022-11-05T08:44:47.320Z,76.75
2022-11-05T08:45:47.323Z,76.65
2022-11-05T08:46:47.274Z,76.68
2022-11-05T08:47:47.312Z,76.65
2022-11-05T08:48:47.250Z,76.65
2022-11-05T08:49:47.240Z,76.65
2022-11-05T08:50:47.266Z,76.75
2022-11-05T08:51:47.219Z,76.75
2022-11-05T08:52:47.236Z,76.75
2022-11-05T08:53:47.227Z,76.55
2022-11-05T08:54:47.242Z,76.86
2022-11-05T08:55:47.178Z,76.95
2022-11-05T08:56:47.164Z,76.86
2022-11-05T08:57:47.188Z,76.95
2022-11-05T08:58:47.146Z,76.95
2022-11-05T08:59:47.189Z,76.86
2022-11-05T09:00:47.231Z,77.02
2022-11-05T09:01:47.362Z,76.92
2022-11-05T09:02:47.115Z,76.82
2022-11-05T09:03:47.086Z,76.86
2022-11-05T09:04:47.072Z,76.82
2022-11-05T09:05:47.098Z,76.95
2022-11-05T09:06:47.081Z,76.75
2022-11-05T09:07:47.042Z,76.86
2022-11-05T09:08:47.049Z,76.95
2022-11-05T09:09:47.018Z,76.65
2022-11-05T09:10:47.042Z,76.86
2022-11-05T09:12:10.718Z,76.55
2022-11-05T09:12:48.043Z,76.65
2022-11-05T09:13:46.974Z,76.75
2022-11-05T09:14:46.969Z,76.75
2022-11-05T09:15:47.035Z,76.86
2022-11-05T09:16:46.938Z,76.86
2022-11-05T09:17:46.950Z,76.75
2022-11-05T09:18:46.937Z,76.86
2022-11-05T09:19:46.926Z,76.75
2022-11-05T09:20:46.888Z,76.75
2022-11-05T09:21:46.942Z,76.95
2022-11-05T09:22:46.866Z,76.95
2022-11-05T09:23:46.895Z,76.95
2022-11-05T09:24:46.851Z,77.06
2022-11-05T09:25:46.852Z,76.86
2022-11-05T09:26:46.950Z,76.95
2022-11-05T09:27:46.816Z,76.86
2022-11-05T09:28:46.799Z,76.75
2022-11-05T09:29:46.858Z,76.92
2022-11-05T09:30:46.783Z,77.06
2022-11-05T09:31:46.780Z,76.75
2022-11-05T09:32:46.769Z,77.16
2022-11-05T09:33:46.742Z,77.12
2022-11-05T09:34:46.730Z,77.16
2022-11-05T09:35:46.761Z,77.16
2022-11-05T09:36:46.711Z,76.75
2022-11-05T09:37:46.714Z,76.75
2022-11-05T09:38:46.685Z,76.72
2022-11-05T09:39:46.678Z,76.82
2022-11-05T09:40:46.673Z,76.72
2022-11-05T09:41:46.665Z,76.72
2022-11-05T09:42:46.764Z,76.72
2022-11-05T09:43:46.626Z,76.51
2022-11-05T09:44:46.618Z,76.72
2022-11-05T09:45:46.613Z,76.72
2022-11-05T09:46:46.616Z,76.61
2022-11-05T09:47:46.604Z,76.68
2022-11-05T09:48:46.571Z,76.78
2022-11-05T09:49:46.656Z,76.37
2022-11-05T09:50:46.548Z,76.48
2022-11-05T09:51:46.546Z,76.68
2022-11-05T09:52:46.532Z,76.68
2022-11-05T09:53:46.556Z,76.58
2022-11-05T09:54:46.510Z,76.48
2022-11-05T09:55:46.495Z,76.58
2022-11-05T09:56:46.489Z,76.68
2022-11-05T09:57:46.470Z,76.58
2022-11-05T09:58:46.499Z,76.58
2022-11-05T09:59:46.474Z,76.58
2022-11-05T10:00:46.492Z,76.68
2022-11-05T10:01:46.627Z,76.37
2022-11-05T10:02:46.414Z,76.68
2022-11-05T10:03:46.404Z,76.68
2022-11-05T10:04:46.397Z,76.75
2022-11-05T10:05:46.482Z,76.58
2022-11-05T10:06:46.376Z,76.68
2022-11-05T10:07:46.367Z,76.64
2022-11-05T10:08:46.347Z,76.75
2022-11-05T10:09:46.340Z,76.78
2022-11-05T10:10:46.327Z,76.78
2022-11-05T10:11:46.334Z,76.54
2022-11-05T10:12:46.302Z,76.64
2022-11-05T10:13:46.296Z,76.85
2022-11-05T10:14:46.397Z,76.75
2022-11-05T10:15:46.272Z,76.64
2022-11-05T10:16:46.263Z,76.54
2022-11-05T10:17:46.291Z,76.75
2022-11-05T10:18:46.292Z,76.64
2022-11-05T10:19:46.234Z,76.75
2022-11-05T10:20:46.242Z,76.98
2022-11-05T10:22:06.210Z,76.95
2022-11-05T10:22:49.600Z,77.09
2022-11-05T10:23:46.243Z,77.09
2022-11-05T10:24:46.168Z,77.09
2022-11-05T10:25:46.164Z,76.98
2022-11-05T10:26:46.147Z,77.15
2022-11-05T10:27:46.135Z,76.98
2022-11-05T10:28:46.136Z,76.98
2022-11-05T10:29:46.130Z,76.98
2022-11-05T10:30:46.124Z,77.05
2022-11-05T10:31:46.099Z,76.95
2022-11-05T10:32:46.077Z,76.88
2022-11-05T10:33:46.088Z,77.39
2022-11-05T10:34:46.087Z,76.88
2022-11-05T10:35:46.052Z,76.88
2022-11-05T10:36:46.039Z,76.88
2022-11-05T10:37:46.022Z,76.88
2022-11-05T10:38:46.017Z,76.78
2022-11-05T10:39:46.030Z,77.09
2022-11-05T10:40:46.029Z,76.88
2022-11-05T10:41:45.980Z,76.88
2022-11-05T10:42:45.993Z,76.88
2022-11-05T10:43:45.960Z,77.39
2022-11-05T10:44:45.943Z,77.49
2022-11-05T10:45:45.938Z,77.49
2022-11-05T10:46:45.975Z,77.19
2022-11-05T10:47:45.915Z,77.49
2022-11-05T10:48:45.900Z,77.39
2022-11-05T10:49:45.890Z,77.39
2022-11-05T10:50:45.954Z,77.49
2022-11-05T10:51:45.868Z,77.29
2022-11-05T10:52:45.879Z,77.39
2022-11-05T10:53:45.844Z,77.49
2022-11-05T10:54:45.830Z,77.29
2022-11-05T10:55:45.820Z,77.70
2022-11-05T10:56:45.809Z,77.19
2022-11-05T10:57:45.802Z,77.53
2022-11-05T10:58:45.860Z,77.43
2022-11-05T10:59:45.776Z,77.53
2022-11-05T11:00:45.823Z,77.94
2022-11-05T11:01:45.871Z,77.53
2022-11-05T11:02:45.792Z,77.73
2022-11-05T11:03:45.729Z,77.73
2022-11-05T11:04:45.735Z,77.53
2022-11-05T11:05:45.712Z,77.73
2022-11-05T11:06:45.718Z,77.94
2022-11-05T11:07:45.686Z,77.83
2022-11-05T11:08:45.673Z,77.63
2022-11-05T11:09:45.659Z,77.63
2022-11-05T11:10:45.665Z,77.53
2022-11-05T11:11:45.643Z,77.33
2022-11-05T11:12:45.643Z,77.53
2022-11-05T11:13:45.620Z,77.43
2022-11-05T11:14:45.606Z,77.43
2022-11-05T11:15:45.592Z,77.43
2022-11-05T11:16:45.624Z,77.33
2022-11-05T11:17:45.574Z,77.33
2022-11-05T11:18:45.586Z,77.33
2022-11-05T11:19:45.554Z,77.33
2022-11-05T11:20:45.567Z,77.43
2022-11-05T11:21:45.525Z,77.33
2022-11-05T11:22:45.540Z,77.33
2022-11-05T11:23:45.508Z,77.53
2022-11-05T11:24:45.508Z,77.43
2022-11-05T11:25:45.480Z,77.53
2022-11-05T11:26:45.476Z,77.63
2022-11-05T11:27:45.453Z,77.83
2022-11-05T11:28:45.541Z,77.53
2022-11-05T11:29:49.347Z,77.83
2022-11-05T11:30:45.423Z,77.83
2022-11-05T11:31:45.523Z,78.14
2022-11-05T11:32:45.403Z,78.24
2022-11-05T11:33:45.420Z,78.14
2022-11-05T11:34:45.421Z,78.14
2022-11-05T11:35:45.431Z,77.73
2022-11-05T11:36:45.364Z,77.94
2022-11-05T11:37:45.351Z,77.83
2022-11-05T11:38:45.336Z,77.83
2022-11-05T11:39:45.324Z,77.83
2022-11-05T11:40:45.345Z,77.83
2022-11-05T11:41:45.321Z,78.24
2022-11-05T11:42:45.350Z,78.24
2022-11-05T11:43:45.279Z,77.73
2022-11-05T11:44:45.269Z,77.73
2022-11-05T11:45:45.309Z,77.53
2022-11-05T11:46:45.258Z,77.73
2022-11-05T11:47:45.282Z,78.04
2022-11-05T11:48:45.222Z,77.73
2022-11-05T11:49:45.210Z,78.28
2022-11-05T11:50:45.229Z,78.17
2022-11-05T11:51:49.864Z,77.87
2022-11-05T11:52:46.265Z,77.97
2022-11-05T11:53:45.167Z,77.77
2022-11-05T11:54:45.152Z,77.87
2022-11-05T11:55:45.147Z,77.56
2022-11-05T11:56:45.134Z,77.67
2022-11-05T11:57:45.128Z,77.97
2022-11-05T11:58:45.122Z,77.87
2022-11-05T12:00:07.705Z,77.60
2022-11-05T12:00:46.090Z,77.67
2022-11-05T12:01:45.134Z,77.60
2022-11-05T12:02:45.171Z,77.81
2022-11-05T12:03:45.054Z,77.70
2022-11-05T12:04:45.115Z,77.70
2022-11-05T12:05:45.052Z,77.60
2022-11-05T12:06:45.065Z,77.56
2022-11-05T12:07:45.006Z,77.50
2022-11-05T12:08:45.955Z,77.77
2022-11-05T12:09:45.018Z,78.11
2022-11-05T12:10:45.047Z,78.21
2022-11-05T12:11:44.973Z,78.11
2022-11-05T12:12:44.960Z,78.08
2022-11-05T12:13:44.948Z,78.11
2022-11-05T12:14:46.696Z,77.70
2022-11-05T12:15:44.934Z,78.31
2022-11-05T12:16:44.930Z,78.31
2022-11-05T12:17:44.901Z,77.40
2022-11-05T12:18:44.887Z,77.70
2022-11-05T12:19:44.890Z,77.70
2022-11-05T12:20:48.126Z,78.01
2022-11-05T12:21:53.484Z,77.81
2022-11-05T12:22:45.904Z,77.81
2022-11-05T12:23:44.833Z,77.84
2022-11-05T12:24:44.818Z,77.91
2022-11-05T12:25:44.812Z,77.74
2022-11-05T12:26:44.795Z,77.84
2022-11-05T12:27:44.829Z,78.05
2022-11-05T12:29:12.104Z,78.05
2022-11-05T12:29:45.773Z,77.94
2022-11-05T12:30:44.752Z,77.74
2022-11-05T12:31:44.768Z,77.84
2022-11-05T12:32:44.821Z,77.74
2022-11-05T12:33:44.724Z,77.94
2022-11-05T12:34:44.729Z,77.94
2022-11-05T12:35:48.214Z,78.05
2022-11-05T12:36:45.692Z,77.94
2022-11-05T12:37:44.705Z,77.94
2022-11-05T12:38:44.790Z,78.35
2022-11-05T12:39:44.659Z,78.15
2022-11-05T12:40:44.691Z,78.28
2022-11-05T12:41:44.634Z,78.49
2022-11-05T12:42:44.626Z,78.59
2022-11-05T12:43:44.615Z,78.69
2022-11-05T12:44:44.625Z,78.59
2022-11-05T12:45:44.579Z,78.59
2022-11-05T12:46:44.610Z,78.80
2022-11-05T12:47:44.563Z,79.10
2022-11-05T12:48:44.556Z,78.49
2022-11-05T12:49:44.551Z,79.30
2022-11-05T12:50:44.524Z,78.89
2022-11-05T12:51:44.527Z,79.30
2022-11-05T12:52:44.598Z,79.41